Oelwein, IA (50662)

23:37 CST le 08 février 2016 (GMT -0600)
Oelwein Municipal | | Change Station
CLOSE
Current Station
Aéroport
Location: Oelwein,
Altitude: 1076 ft
Stations météo à proximité

Alt. 1076 ft 42.68 °N, 91.97 °W | Updated 22 minutes ago

Neige
Neige
14 ° F
Paraît -2 ° F
N
16
Vent Variable Vent de NNO

Aujourd'hui
Haut(e) -- | Bas -- ° F
--% Risque de précip.
Hier
Haut(e) -- | Bas -- ° F
Precip. -- pouce
Pression 29.88 pouce
Visibilité 3.0 Miles terrestres
Nuages Peu 400 ft
Nuageux 900 ft
Couvert 1300 ft
Refroidissement éolien -2 ° F
Point de rosée 12 ° F
Humidité 93%
Précipitations 0.00 pouce
Profondeur de la couche neigeuse Non disponible.
7:14 AM 5:29 PM
Nouvelle lune, 1% visible
METAR KOLZ 090515Z AUTO 33014KT 3SM -SN FEW004 BKN009 OVC013 M10/M11 A2988 RMK AO2
Pression 29.88 pouce
Visibilité 3.0 Miles terrestres
Nuages Peu 400 ft
Nuageux 900 ft
Couvert 1300 ft
Refroidissement éolien -2 ° F
Point de rosée 12 ° F
Humidité 93%
Précipitations 0.00 pouce
Profondeur de la couche neigeuse Non disponible.
7:14 AM 5:29 PM
Nouvelle lune, 1% visible
METAR KOLZ 090515Z AUTO 33014KT 3SM -SN FEW004 BKN009 OVC013 M10/M11 A2988 RMK AO2

10-Day Weather Forecast

Almanac

Astronomie

Feb. 08, 2016 Lever Coucher
Temps réel
Crépuscule civil
Crépuscule nautique
Crépuscule astronomique
Lune
Durée de lumière visible
Longueur du jour
Tomorrow will be .
, % of the Moon is Illuminated

Extrêmes aujourd'hui

State Highs State Lows

Community

WunderPhotos

Upload Photos

1,891,565 Photos téléchargées !

WunderBlog® & News

Nearby

Qualité de l'air

  Qualité de l'air Indice de la qualité de l'air Polluant
Not available.

Épaisseur de neige

Station Depth Altitude

Activité sismique

Ville Distance Mag. Time & Date
Minimum magnitude displayed is 2.5.

Températures des eaux côtières

Lieu Température

Stations

Stations météo à proximité

Emplacement de la station Température Refroidissement éolien Point de rosée Humidité Vent Precip. Alt. Mise à jour Type
                   

Watches & Warnings

There are currently no watches in effect.